Time;durP1;ratioP1;P1;durP2;ratioP2;P2;SDS_P1;SDS_P2;PMS_P1;PMS_P2;Temp;Humidity;BMP_temperature;BMP_pressure;BME280_temperature;BME280_humidity;BME280_pressure;Samples;Min_cycle;Max_cycle;Signal;HPM_P1;HPM_P2
2021/12/26 00:00:11;;;;;;;14.18;7.20;;;;;;;;;;5030496;28;20432;-78
2021/12/26 00:02:37;;;;;;;14.77;7.88;;;;;;;;;;5031826;28;20082;-77
2021/12/26 00:05:04;;;;;;;15.23;7.60;;;;;;;;;;5032479;28;20021;-76
2021/12/26 00:07:30;;;;;;;15.70;7.60;;;;;;;;;;5032797;28;20033;-78
2021/12/26 00:09:56;;;;;;;15.90;7.57;;;;;;;;;;5034764;28;20026;-79
2021/12/26 00:12:22;;;;;;;16.67;8.23;;;;;;;;;;5033746;28;20104;-78
2021/12/26 00:14:48;;;;;;;15.05;8.25;;;;;;;;;;5037306;28;20090;-77
2021/12/26 00:17:14;;;;;;;18.20;9.15;;;;;;;;;;5035544;28;20511;-78
2021/12/26 00:19:41;;;;;;;15.05;6.80;;;;;;;;;;5032887;28;20086;-79
2021/12/26 00:22:07;;;;;;;16.73;7.07;;;;;;;;;;5030238;28;20268;-76
2021/12/26 00:24:34;;;;;;;12.68;6.82;;;;;;;;;;5028990;28;20028;-77
2021/12/26 00:27:00;;;;;;;14.30;7.20;;;;;;;;;;5031216;28;20025;-77
2021/12/26 00:29:26;;;;;;;15.02;7.95;;;;;;;;;;5030945;28;20040;-77
2021/12/26 00:31:52;;;;;;;14.85;6.85;;;;;;;;;;5030422;28;20037;-77
2021/12/26 00:34:19;;;;;;;14.07;7.35;;;;;;;;;;5032679;28;20116;-79
2021/12/26 00:36:45;;;;;;;16.83;7.38;;;;;;;;;;5029991;28;20029;-77
2021/12/26 00:39:11;;;;;;;16.65;7.65;;;;;;;;;;5031098;28;20057;-76
2021/12/26 00:41:39;;;;;;;15.30;7.32;;;;;;;;;;5030808;28;20500;-76
2021/12/26 00:44:06;;;;;;;15.35;7.75;;;;;;;;;;5014553;28;20083;-77
2021/12/26 00:46:32;;;;;;;13.70;7.80;;;;;;;;;;5030997;28;20025;-77
2021/12/26 00:48:58;;;;;;;15.73;7.05;;;;;;;;;;5029810;28;20029;-76
2021/12/26 00:51:24;;;;;;;13.02;6.88;;;;;;;;;;5032486;28;20442;-77
2021/12/26 00:53:50;;;;;;;14.88;7.20;;;;;;;;;;5034570;28;20387;-77
2021/12/26 00:56:17;;;;;;;14.10;8.40;;;;;;;;;;5034554;28;20384;-77
2021/12/26 00:58:43;;;;;;;13.20;6.88;;;;;;;;;;5038064;28;20060;-76
2021/12/26 01:01:09;;;;;;;14.45;8.15;;;;;;;;;;5039988;28;20054;-76
2021/12/26 01:03:36;;;;;;;14.02;7.80;;;;;;;;;;5030923;28;20383;-77
2021/12/26 01:06:02;;;;;;;14.07;7.10;;;;;;;;;;5029259;28;20036;-76
2021/12/26 01:08:31;;;;;;;24.35;9.10;;;;;;;;;;5030287;28;20025;-76
2021/12/26 01:10:59;;;;;;;13.43;7.03;;;;;;;;;;5029882;28;20036;-77
2021/12/26 01:13:33;;;;;;;13.13;7.30;;;;;;;;;;5029969;28;20055;-76
2021/12/26 01:16:00;;;;;;;15.60;7.63;;;;;;;;;;5029239;28;20032;-76
2021/12/26 01:18:28;;;;;;;12.77;6.60;;;;;;;;;;5029932;28;20248;-77
2021/12/26 01:23:39;;;;;;;13.00;6.72;;;;;;;;;;5030311;28;20088;-76
2021/12/26 01:26:05;;;;;;;16.27;7.28;;;;;;;;;;5030392;28;20082;-76
2021/12/26 01:28:32;;;;;;;12.55;6.65;;;;;;;;;;5029984;28;20136;-77
2021/12/26 01:30:58;;;;;;;11.70;5.93;;;;;;;;;;5030286;28;20241;-77
2021/12/26 01:33:25;;;;;;;11.25;6.45;;;;;;;;;;5030112;28;20044;-75
2021/12/26 01:35:52;;;;;;;11.95;6.82;;;;;;;;;;5030663;28;20415;-77
2021/12/26 01:38:18;;;;;;;13.10;6.25;;;;;;;;;;5030011;28;20026;-77
2021/12/26 01:40:48;;;;;;;15.68;7.47;;;;;;;;;;5030716;28;20030;-77
2021/12/26 01:43:15;;;;;;;13.63;7.00;;;;;;;;;;5030019;28;20037;-76
2021/12/26 01:45:41;;;;;;;13.90;6.57;;;;;;;;;;5030694;28;20183;-77
2021/12/26 01:48:07;;;;;;;13.63;7.65;;;;;;;;;;5033296;28;20459;-77
2021/12/26 01:50:34;;;;;;;14.43;7.65;;;;;;;;;;5034914;28;20037;-77
2021/12/26 01:53:00;;;;;;;16.00;7.45;;;;;;;;;;5033862;28;20034;-77
2021/12/26 01:55:38;;;;;;;14.07;7.40;;;;;;;;;;5032341;28;20041;-77
2021/12/26 01:58:05;;;;;;;14.32;6.88;;;;;;;;;;5033699;28;20104;-77
2021/12/26 02:00:31;;;;;;;13.80;7.60;;;;;;;;;;5034511;28;20033;-77
2021/12/26 02:02:58;;;;;;;12.07;6.30;;;;;;;;;;5037651;28;20036;-77
2021/12/26 02:05:24;;;;;;;11.70;6.35;;;;;;;;;;5038195;28;20049;-77
2021/12/26 02:07:50;;;;;;;13.80;7.30;;;;;;;;;;5037040;28;20021;-76
2021/12/26 02:10:16;;;;;;;13.57;7.03;;;;;;;;;;5037971;28;20025;-77
2021/12/26 02:12:42;;;;;;;14.05;7.13;;;;;;;;;;5038627;28;20026;-77
2021/12/26 02:15:09;;;;;;;12.18;5.93;;;;;;;;;;5037060;28;20511;-77
2021/12/26 02:17:35;;;;;;;14.85;7.30;;;;;;;;;;5037227;28;20026;-77
2021/12/26 02:20:15;;;;;;;13.68;6.70;;;;;;;;;;5036460;28;20026;-77
2021/12/26 02:22:45;;;;;;;14.98;6.95;;;;;;;;;;5036894;28;20377;-77
2021/12/26 02:27:43;;;;;;;15.48;6.65;;;;;;;;;;5037554;28;20132;-76
2021/12/26 02:30:12;;;;;;;13.48;7.68;;;;;;;;;;5036438;28;20506;-76
2021/12/26 02:32:38;;;;;;;12.65;6.35;;;;;;;;;;5035935;28;20075;-77
2021/12/26 02:35:04;;;;;;;12.48;6.68;;;;;;;;;;5037480;28;20029;-77
2021/12/26 02:37:30;;;;;;;13.77;6.35;;;;;;;;;;5035344;28;20030;-77
2021/12/26 02:39:56;;;;;;;14.80;7.13;;;;;;;;;;5037035;28;20065;-77
2021/12/26 02:42:23;;;;;;;16.88;7.20;;;;;;;;;;5036327;28;20029;-77
2021/12/26 02:44:49;;;;;;;12.90;5.65;;;;;;;;;;5035449;28;20052;-77
2021/12/26 02:47:29;;;;;;;13.68;6.40;;;;;;;;;;5037121;28;20034;-77
2021/12/26 02:50:05;;;;;;;11.05;6.55;;;;;;;;;;5035350;28;20144;-77
2021/12/26 02:52:31;;;;;;;12.43;6.35;;;;;;;;;;5035483;28;20452;-76
2021/12/26 02:54:59;;;;;;;12.82;5.80;;;;;;;;;;5035702;28;20360;-77
2021/12/26 02:57:25;;;;;;;13.18;6.78;;;;;;;;;;5036891;28;20021;-77
2021/12/26 02:59:51;;;;;;;12.57;6.82;;;;;;;;;;5036487;28;20029;-77
2021/12/26 03:02:17;;;;;;;12.50;6.13;;;;;;;;;;5035955;28;20080;-76
2021/12/26 03:04:43;;;;;;;12.20;6.05;;;;;;;;;;5036450;28;20030;-76
2021/12/26 03:07:09;;;;;;;12.25;6.78;;;;;;;;;;5036616;28;20100;-76
2021/12/26 03:09:44;;;;;;;11.70;6.65;;;;;;;;;;5036306;28;20487;-77
2021/12/26 03:12:11;;;;;;;15.40;7.20;;;;;;;;;;5034107;28;20022;-77
2021/12/26 03:14:38;;;;;;;16.02;6.80;;;;;;;;;;5036043;28;20033;-76
2021/12/26 03:17:05;;;;;;;11.10;6.22;;;;;;;;;;5035474;28;20033;-76
2021/12/26 03:19:32;;;;;;;14.05;6.35;;;;;;;;;;5034951;28;20053;-77
2021/12/26 03:21:58;;;;;;;14.13;6.35;;;;;;;;;;5034822;28;20560;-76
2021/12/26 03:24:24;;;;;;;11.70;6.45;;;;;;;;;;5036637;28;20132;-76
2021/12/26 03:26:50;;;;;;;12.82;6.45;;;;;;;;;;5036012;28;20032;-77
2021/12/26 03:29:16;;;;;;;12.02;6.30;;;;;;;;;;5035155;28;20097;-76
2021/12/26 03:31:42;;;;;;;14.18;6.32;;;;;;;;;;5035547;28;20045;-77
2021/12/26 03:34:09;;;;;;;15.82;7.35;;;;;;;;;;5035272;28;20024;-77
2021/12/26 03:36:36;;;;;;;12.52;6.57;;;;;;;;;;5034846;28;20044;-77
2021/12/26 03:39:02;;;;;;;13.07;6.63;;;;;;;;;;5036072;28;20021;-77
2021/12/26 03:41:28;;;;;;;12.18;6.18;;;;;;;;;;5035577;28;20072;-77
2021/12/26 03:43:54;;;;;;;14.18;6.57;;;;;;;;;;5035305;28;20055;-76
2021/12/26 03:46:20;;;;;;;13.63;6.65;;;;;;;;;;5035142;28;20044;-77
2021/12/26 03:48:46;;;;;;;12.27;6.50;;;;;;;;;;5032075;28;20030;-76
2021/12/26 03:51:12;;;;;;;12.18;5.75;;;;;;;;;;5034811;28;20030;-76
2021/12/26 03:53:38;;;;;;;9.95;5.53;;;;;;;;;;5035128;28;20030;-76
2021/12/26 03:56:04;;;;;;;11.82;6.55;;;;;;;;;;5033611;28;20052;-76
2021/12/26 03:58:30;;;;;;;12.73;6.35;;;;;;;;;;5034651;28;20025;-76
2021/12/26 04:00:56;;;;;;;11.52;6.07;;;;;;;;;;5034650;28;20037;-77
2021/12/26 04:03:23;;;;;;;10.02;6.63;;;;;;;;;;5034273;28;20021;-77
2021/12/26 04:05:50;;;;;;;13.02;6.53;;;;;;;;;;5035313;28;20022;-77
2021/12/26 04:08:16;;;;;;;12.43;7.18;;;;;;;;;;5035505;28;20017;-77
2021/12/26 04:10:42;;;;;;;10.63;5.75;;;;;;;;;;5035816;28;20556;-76
2021/12/26 04:13:08;;;;;;;14.65;6.30;;;;;;;;;;5034333;28;20067;-77
2021/12/26 04:15:34;;;;;;;15.95;7.30;;;;;;;;;;5035696;28;20021;-76
2021/12/26 04:18:01;;;;;;;15.85;5.93;;;;;;;;;;5035927;28;20037;-77
2021/12/26 04:20:28;;;;;;;14.15;5.88;;;;;;;;;;5034222;28;20033;-77
2021/12/26 04:22:54;;;;;;;12.02;6.35;;;;;;;;;;5035710;28;20495;-77
2021/12/26 04:25:21;;;;;;;13.05;6.72;;;;;;;;;;5036206;28;20089;-77
2021/12/26 04:27:48;;;;;;;12.50;5.97;;;;;;;;;;5039292;28;20030;-77
2021/12/26 04:30:15;;;;;;;13.85;5.97;;;;;;;;;;5037668;28;20491;-78
2021/12/26 04:32:41;;;;;;;13.50;6.95;;;;;;;;;;5037081;28;20033;-77
2021/12/26 04:35:07;;;;;;;13.88;6.28;;;;;;;;;;5036571;28;20042;-77
2021/12/26 04:37:34;;;;;;;13.32;6.57;;;;;;;;;;5036663;28;20155;-77
2021/12/26 04:40:00;;;;;;;14.52;6.38;;;;;;;;;;5036581;28;20029;-77
2021/12/26 04:42:26;;;;;;;12.57;6.40;;;;;;;;;;5036376;28;20109;-77
2021/12/26 04:44:53;;;;;;;13.82;6.63;;;;;;;;;;5035958;28;20049;-77
2021/12/26 04:47:19;;;;;;;13.05;6.32;;;;;;;;;;5035909;28;20075;-77
2021/12/26 04:49:45;;;;;;;11.60;6.57;;;;;;;;;;5036375;28;20030;-78
2021/12/26 04:52:11;;;;;;;13.23;7.22;;;;;;;;;;5036516;28;20039;-77
2021/12/26 04:54:37;;;;;;;14.00;6.10;;;;;;;;;;5031428;28;20108;-77
2021/12/26 04:57:03;;;;;;;11.70;5.82;;;;;;;;;;5043775;28;20143;-76
2021/12/26 04:59:29;;;;;;;11.15;5.88;;;;;;;;;;5034468;28;20513;-77
2021/12/26 05:01:55;;;;;;;15.35;6.82;;;;;;;;;;5035545;28;20424;-77
2021/12/26 05:04:21;;;;;;;9.43;5.85;;;;;;;;;;5035072;28;20150;-77
2021/12/26 05:06:48;;;;;;;14.93;6.78;;;;;;;;;;5033062;28;20028;-78
2021/12/26 05:09:14;;;;;;;15.38;7.28;;;;;;;;;;5032748;28;20049;-77
2021/12/26 05:11:41;;;;;;;11.90;6.00;;;;;;;;;;5032467;28;20307;-78
2021/12/26 05:14:07;;;;;;;14.20;5.93;;;;;;;;;;5036313;28;20029;-78
2021/12/26 05:16:33;;;;;;;13.60;6.43;;;;;;;;;;5034980;28;20029;-78
2021/12/26 05:18:59;;;;;;;12.18;6.65;;;;;;;;;;5027295;28;20033;-78
2021/12/26 05:21:25;;;;;;;12.30;6.32;;;;;;;;;;5034500;28;20200;-77
2021/12/26 05:23:51;;;;;;;11.68;6.38;;;;;;;;;;5034825;28;20119;-78
2021/12/26 05:26:17;;;;;;;13.73;6.82;;;;;;;;;;5034578;28;20029;-78
2021/12/26 05:28:43;;;;;;;13.60;6.95;;;;;;;;;;5033257;28;20085;-78
2021/12/26 05:31:09;;;;;;;11.75;6.43;;;;;;;;;;5036526;28;20053;-77
2021/12/26 05:33:35;;;;;;;16.27;7.85;;;;;;;;;;5044733;28;20036;-78
2021/12/26 05:36:01;;;;;;;11.32;6.00;;;;;;;;;;5063049;28;20025;-77
2021/12/26 05:38:28;;;;;;;11.13;6.13;;;;;;;;;;5045194;28;20060;-78
2021/12/26 05:40:54;;;;;;;11.23;6.15;;;;;;;;;;5039811;28;20045;-78
2021/12/26 05:43:20;;;;;;;14.52;7.18;;;;;;;;;;5037622;28;20033;-77
2021/12/26 05:45:46;;;;;;;13.27;6.78;;;;;;;;;;5040027;28;20014;-78
2021/12/26 05:48:12;;;;;;;14.30;6.80;;;;;;;;;;5039640;28;20036;-77
2021/12/26 05:50:38;;;;;;;11.95;6.43;;;;;;;;;;5038192;28;20037;-77
2021/12/26 05:53:05;;;;;;;13.40;6.63;;;;;;;;;;5035947;28;20040;-77
2021/12/26 05:55:31;;;;;;;13.23;6.82;;;;;;;;;;5038054;28;20040;-77
2021/12/26 05:57:57;;;;;;;16.60;8.00;;;;;;;;;;5038765;28;20052;-78
2021/12/26 06:00:23;;;;;;;14.57;7.85;;;;;;;;;;5036912;28;20025;-77
2021/12/26 06:02:50;;;;;;;13.13;7.20;;;;;;;;;;5038300;28;20025;-79
2021/12/26 06:05:17;;;;;;;14.68;7.63;;;;;;;;;;5047204;28;20021;-76
2021/12/26 06:07:44;;;;;;;12.75;7.43;;;;;;;;;;5037692;28;20104;-77
2021/12/26 06:10:10;;;;;;;13.23;7.00;;;;;;;;;;5038356;28;20033;-76
2021/12/26 06:12:36;;;;;;;13.80;7.40;;;;;;;;;;5036695;28;20044;-77
2021/12/26 06:15:04;;;;;;;16.55;8.15;;;;;;;;;;5037464;28;20055;-77
2021/12/26 06:17:30;;;;;;;13.35;6.88;;;;;;;;;;5037956;28;20026;-77
2021/12/26 06:19:56;;;;;;;15.40;7.38;;;;;;;;;;5036843;28;20492;-77
2021/12/26 06:22:22;;;;;;;16.58;7.75;;;;;;;;;;5036712;28;20025;-77
2021/12/26 06:24:48;;;;;;;15.02;8.05;;;;;;;;;;5037501;28;20064;-76
2021/12/26 06:27:14;;;;;;;15.48;7.50;;;;;;;;;;5037006;28;20089;-77
2021/12/26 06:29:40;;;;;;;15.80;7.18;;;;;;;;;;5037172;28;20113;-77
2021/12/26 06:32:06;;;;;;;15.82;7.70;;;;;;;;;;5036007;28;20041;-77
2021/12/26 06:34:33;;;;;;;19.20;8.65;;;;;;;;;;5036798;28;20040;-77
2021/12/26 06:36:59;;;;;;;17.63;9.88;;;;;;;;;;5036929;28;20032;-79
2021/12/26 06:39:25;;;;;;;20.67;11.18;;;;;;;;;;5035583;28;20108;-79
2021/12/26 06:41:51;;;;;;;21.20;12.13;;;;;;;;;;5033631;28;20022;-79
2021/12/26 06:44:17;;;;;;;21.30;12.90;;;;;;;;;;5035475;28;20025;-79
2021/12/26 06:46:43;;;;;;;18.73;10.13;;;;;;;;;;5036114;28;20084;-79
2021/12/26 06:49:09;;;;;;;15.40;9.95;;;;;;;;;;5031483;28;20074;-77
2021/12/26 06:51:35;;;;;;;21.58;10.00;;;;;;;;;;5029598;28;20297;-77
2021/12/26 06:54:01;;;;;;;19.50;11.30;;;;;;;;;;5034290;28;20026;-77
2021/12/26 06:56:27;;;;;;;17.33;10.18;;;;;;;;;;5032390;28;20098;-76
2021/12/26 06:58:53;;;;;;;19.63;9.05;;;;;;;;;;5032797;28;20040;-77
2021/12/26 07:01:19;;;;;;;15.95;8.88;;;;;;;;;;5036102;28;20487;-77
2021/12/26 07:03:45;;;;;;;17.83;10.00;;;;;;;;;;5032610;28;20083;-77
2021/12/26 07:06:11;;;;;;;15.57;9.48;;;;;;;;;;5031079;28;20029;-80
2021/12/26 07:08:37;;;;;;;17.85;9.30;;;;;;;;;;5032831;28;20026;-76
2021/12/26 07:11:03;;;;;;;15.95;8.90;;;;;;;;;;5026381;28;20401;-77
2021/12/26 07:13:29;;;;;;;17.15;9.18;;;;;;;;;;5033327;28;20041;-78
2021/12/26 07:15:55;;;;;;;20.02;8.95;;;;;;;;;;5031787;28;20115;-79
2021/12/26 07:18:21;;;;;;;17.23;8.80;;;;;;;;;;5019925;28;20053;-76
2021/12/26 07:20:47;;;;;;;17.15;9.05;;;;;;;;;;5032795;28;20029;-76
2021/12/26 07:23:13;;;;;;;15.70;9.35;;;;;;;;;;5033054;28;20024;-77
2021/12/26 07:25:40;;;;;;;14.65;8.82;;;;;;;;;;5031754;28;20025;-77
2021/12/26 07:28:06;;;;;;;14.20;8.48;;;;;;;;;;5031909;28;20044;-77
2021/12/26 07:30:32;;;;;;;11.90;8.13;;;;;;;;;;5031865;28;20049;-77
2021/12/26 07:32:58;;;;;;;14.30;8.43;;;;;;;;;;5033976;28;20030;-80
2021/12/26 07:35:24;;;;;;;16.98;8.85;;;;;;;;;;5047113;28;20036;-80
2021/12/26 07:37:52;;;;;;;17.35;8.30;;;;;;;;;;5033852;28;20038;-80
2021/12/26 07:40:19;;;;;;;14.85;8.65;;;;;;;;;;5034012;28;20104;-80
2021/12/26 07:42:45;;;;;;;17.90;10.63;;;;;;;;;;5032557;28;20105;-80
2021/12/26 07:45:11;;;;;;;19.02;10.32;;;;;;;;;;5030771;28;20028;-80
2021/12/26 07:47:38;;;;;;;19.20;10.95;;;;;;;;;;5026852;28;20040;-79
2021/12/26 07:50:04;;;;;;;20.55;10.55;;;;;;;;;;5032011;28;20026;-79
2021/12/26 07:52:35;;;;;;;18.83;9.82;;;;;;;;;;5031590;28;20025;-77
2021/12/26 07:55:03;;;;;;;20.60;10.40;;;;;;;;;;5036197;28;20083;-79
2021/12/26 07:57:29;;;;;;;22.40;10.50;;;;;;;;;;5031577;28;20093;-76
2021/12/26 07:59:55;;;;;;;20.00;10.85;;;;;;;;;;5029665;28;21162;-79
2021/12/26 08:02:21;;;;;;;18.25;10.32;;;;;;;;;;5030762;28;20092;-79
2021/12/26 08:04:48;;;;;;;21.42;10.50;;;;;;;;;;5032972;28;20196;-79
2021/12/26 08:07:14;;;;;;;21.70;10.45;;;;;;;;;;5031007;28;20025;-80
2021/12/26 08:09:40;;;;;;;18.52;10.38;;;;;;;;;;5032795;28;20455;-78
2021/12/26 08:12:06;;;;;;;19.73;10.73;;;;;;;;;;5031026;28;20029;-79
2021/12/26 08:14:32;;;;;;;21.17;10.90;;;;;;;;;;5032310;28;20022;-78
2021/12/26 08:16:59;;;;;;;19.13;11.30;;;;;;;;;;5032052;28;20477;-79
2021/12/26 08:19:25;;;;;;;24.25;12.15;;;;;;;;;;5034065;28;20029;-79
2021/12/26 08:21:52;;;;;;;21.60;10.57;;;;;;;;;;5033122;28;20056;-78
2021/12/26 08:24:18;;;;;;;21.58;12.45;;;;;;;;;;5032973;28;20022;-79
2021/12/26 08:26:49;;;;;;;24.23;12.63;;;;;;;;;;5033833;28;20022;-79
2021/12/26 08:29:16;;;;;;;18.88;10.85;;;;;;;;;;5033233;28;20087;-78
2021/12/26 08:31:42;;;;;;;22.40;11.85;;;;;;;;;;5034506;28;20475;-79
2021/12/26 08:34:09;;;;;;;21.08;11.73;;;;;;;;;;5034078;28;20018;-79
2021/12/26 08:36:35;;;;;;;21.70;11.32;;;;;;;;;;5031485;28;20047;-78
2021/12/26 08:39:03;;;;;;;21.25;10.88;;;;;;;;;;5024165;28;20049;-78
2021/12/26 08:41:29;;;;;;;27.45;12.35;;;;;;;;;;5012149;28;20025;-78
2021/12/26 08:43:55;;;;;;;22.60;11.50;;;;;;;;;;5014650;28;20057;-78
2021/12/26 08:46:22;;;;;;;22.08;12.55;;;;;;;;;;5013387;28;20030;-78
2021/12/26 08:48:48;;;;;;;20.05;13.15;;;;;;;;;;5022366;28;20362;-78
2021/12/26 08:51:15;;;;;;;20.40;10.95;;;;;;;;;;5032809;28;20026;-78
2021/12/26 08:53:41;;;;;;;22.65;11.15;;;;;;;;;;5026509;28;20514;-78
2021/12/26 08:56:07;;;;;;;23.30;12.57;;;;;;;;;;5030425;28;20405;-78
2021/12/26 08:58:33;;;;;;;23.23;13.30;;;;;;;;;;5032002;28;20053;-78
2021/12/26 09:00:59;;;;;;;23.33;11.07;;;;;;;;;;5032125;28;20025;-78
2021/12/26 09:03:25;;;;;;;23.90;11.55;;;;;;;;;;5033158;28;20041;-79
2021/12/26 09:05:51;;;;;;;24.65;13.88;;;;;;;;;;5031714;28;20018;-78
2021/12/26 09:08:18;;;;;;;20.20;10.90;;;;;;;;;;5031986;28;20442;-78
2021/12/26 09:10:44;;;;;;;20.08;12.43;;;;;;;;;;5032208;28;20036;-79
2021/12/26 09:13:10;;;;;;;23.33;12.98;;;;;;;;;;5033821;28;20033;-79
2021/12/26 09:15:37;;;;;;;25.88;12.27;;;;;;;;;;5035074;28;20105;-78
2021/12/26 09:18:03;;;;;;;24.77;12.90;;;;;;;;;;5034756;28;20495;-78
2021/12/26 09:20:29;;;;;;;26.85;13.82;;;;;;;;;;5032580;28;20029;-77
2021/12/26 09:22:56;;;;;;;25.15;13.13;;;;;;;;;;5031940;28;20026;-77
2021/12/26 09:25:22;;;;;;;25.63;14.30;;;;;;;;;;5033312;28;20036;-77
2021/12/26 09:27:48;;;;;;;27.65;14.23;;;;;;;;;;5032360;28;20040;-77
2021/12/26 09:30:14;;;;;;;23.20;13.75;;;;;;;;;;5031354;28;20053;-78
2021/12/26 09:32:40;;;;;;;28.52;14.85;;;;;;;;;;5049157;28;20042;-77
2021/12/26 09:35:07;;;;;;;24.90;13.75;;;;;;;;;;5032970;28;20034;-76
2021/12/26 09:37:33;;;;;;;26.58;15.60;;;;;;;;;;5033761;28;20029;-77
2021/12/26 09:39:59;;;;;;;26.52;15.38;;;;;;;;;;5032784;28;20033;-77
2021/12/26 09:42:25;;;;;;;29.60;16.35;;;;;;;;;;5033269;28;20026;-78
2021/12/26 09:44:52;;;;;;;25.67;15.77;;;;;;;;;;5032585;28;20026;-78
2021/12/26 09:47:18;;;;;;;26.27;14.63;;;;;;;;;;5033136;28;20025;-77
2021/12/26 09:49:44;;;;;;;32.83;15.77;;;;;;;;;;5029766;28;20778;-77
2021/12/26 09:52:10;;;;;;;26.20;15.63;;;;;;;;;;5025342;28;20097;-76
2021/12/26 09:54:36;;;;;;;33.88;17.85;;;;;;;;;;5033150;28;20476;-78
2021/12/26 09:57:02;;;;;;;33.38;18.38;;;;;;;;;;5032824;28;20018;-78
2021/12/26 09:59:30;;;;;;;31.90;18.42;;;;;;;;;;5032720;28;20353;-77
2021/12/26 10:01:57;;;;;;;33.45;17.80;;;;;;;;;;5034204;28;20030;-77
2021/12/26 10:04:24;;;;;;;34.28;17.90;;;;;;;;;;5033026;28;20357;-77
2021/12/26 10:06:52;;;;;;;30.98;15.70;;;;;;;;;;5033026;28;20025;-77
2021/12/26 10:09:19;;;;;;;36.45;17.67;;;;;;;;;;5032073;28;20040;-77
2021/12/26 10:11:49;;;;;;;34.65;19.05;;;;;;;;;;5032869;28;20030;-77
2021/12/26 10:14:17;;;;;;;31.35;18.42;;;;;;;;;;5026977;28;20026;-77
2021/12/26 10:16:45;;;;;;;36.65;19.08;;;;;;;;;;5035208;28;20021;-78
2021/12/26 10:19:11;;;;;;;29.95;18.55;;;;;;;;;;5037274;28;20022;-77
2021/12/26 10:21:42;;;;;;;38.22;19.65;;;;;;;;;;5035947;28;20547;-77
2021/12/26 10:24:12;;;;;;;38.70;20.30;;;;;;;;;;5037665;28;20391;-77
2021/12/26 10:26:59;;;;;;;35.35;18.50;;;;;;;;;;5023345;28;20131;-77
2021/12/26 10:29:27;;;;;;;42.72;23.20;;;;;;;;;;5035195;28;20367;-77
2021/12/26 10:31:55;;;;;;;35.20;19.67;;;;;;;;;;5032450;28;20434;-77
2021/12/26 10:34:21;;;;;;;38.13;20.15;;;;;;;;;;5035265;28;20017;-78
2021/12/26 10:36:48;;;;;;;35.00;18.67;;;;;;;;;;5037827;28;20024;-78
2021/12/26 10:39:17;;;;;;;42.50;22.20;;;;;;;;;;5037033;28;20025;-79
2021/12/26 10:41:44;;;;;;;44.92;23.17;;;;;;;;;;5038201;28;20496;-78
2021/12/26 10:44:20;;;;;;;45.90;24.50;;;;;;;;;;5038050;28;20176;-78
2021/12/26 10:46:48;;;;;;;43.47;23.02;;;;;;;;;;5038482;28;20139;-77
2021/12/26 10:49:30;;;;;;;47.97;23.17;;;;;;;;;;5036030;28;20040;-78
2021/12/26 10:51:57;;;;;;;44.10;23.38;;;;;;;;;;5035705;28;20029;-77
2021/12/26 10:54:25;;;;;;;39.20;21.80;;;;;;;;;;5035771;28;20029;-78
2021/12/26 10:57:12;;;;;;;43.20;21.48;;;;;;;;;;5035223;28;20053;-77
2021/12/26 10:59:42;;;;;;;39.90;22.10;;;;;;;;;;5035280;28;20080;-77
2021/12/26 11:02:08;;;;;;;38.50;22.35;;;;;;;;;;5015935;28;20369;-77
2021/12/26 11:04:37;;;;;;;42.25;22.67;;;;;;;;;;5027932;28;20026;-77
2021/12/26 11:07:05;;;;;;;47.97;21.20;;;;;;;;;;5034985;28;20022;-76
2021/12/26 11:09:32;;;;;;;44.15;21.85;;;;;;;;;;5035080;28;20035;-77
2021/12/26 11:12:01;;;;;;;44.75;24.27;;;;;;;;;;5035208;28;20037;-77
2021/12/26 11:14:27;;;;;;;39.00;20.02;;;;;;;;;;5033392;28;20052;-77
2021/12/26 11:16:53;;;;;;;41.17;21.27;;;;;;;;;;5033970;28;20426;-79
2021/12/26 11:19:38;;;;;;;43.90;22.63;;;;;;;;;;5032245;28;20056;-76
2021/12/26 11:22:04;;;;;;;41.75;21.83;;;;;;;;;;5033564;28;20041;-78
2021/12/26 11:24:30;;;;;;;40.13;21.25;;;;;;;;;;5034154;28;20068;-76
2021/12/26 11:26:56;;;;;;;43.33;20.73;;;;;;;;;;5035030;28;20026;-77
2021/12/26 11:29:22;;;;;;;42.90;20.65;;;;;;;;;;5033332;28;20112;-77
2021/12/26 11:31:53;;;;;;;37.15;19.90;;;;;;;;;;5034659;28;20167;-78
2021/12/26 11:34:19;;;;;;;42.38;19.92;;;;;;;;;;5032695;28;20408;-77
2021/12/26 11:36:46;;;;;;;38.55;19.75;;;;;;;;;;5034384;28;20025;-77
2021/12/26 11:39:12;;;;;;;40.08;21.55;;;;;;;;;;5034504;28;20056;-77
2021/12/26 11:42:11;;;;;;;35.83;19.77;;;;;;;;;;5032842;28;20104;-77
2021/12/26 11:44:40;;;;;;;45.08;21.63;;;;;;;;;;4989400;28;20041;-79
2021/12/26 11:47:16;;;;;;;43.30;20.50;;;;;;;;;;5034447;28;20022;-78
2021/12/26 11:49:50;;;;;;;41.72;20.65;;;;;;;;;;5031553;28;20026;-77
2021/12/26 11:52:19;;;;;;;37.08;20.48;;;;;;;;;;5033853;28;20017;-76
2021/12/26 11:54:48;;;;;;;42.70;21.73;;;;;;;;;;5033368;28;20087;-77
2021/12/26 11:57:22;;;;;;;43.25;21.10;;;;;;;;;;5032922;28;20120;-77
2021/12/26 11:59:53;;;;;;;41.50;23.73;;;;;;;;;;5013922;28;20485;-76
2021/12/26 12:02:52;;;;;;;41.63;21.23;;;;;;;;;;5032706;28;20151;-77
2021/12/26 12:05:18;;;;;;;43.65;20.48;;;;;;;;;;4952661;29;20045;-77
2021/12/26 12:07:54;;;;;;;44.47;22.17;;;;;;;;;;4952504;28;20048;-78
2021/12/26 12:10:35;;;;;;;41.60;21.80;;;;;;;;;;4952191;29;20393;-77
2021/12/26 12:13:01;;;;;;;41.08;20.60;;;;;;;;;;4952789;28;20138;-77
2021/12/26 12:15:45;;;;;;;46.53;21.70;;;;;;;;;;4951700;28;20039;-77
2021/12/26 12:18:13;;;;;;;38.03;20.13;;;;;;;;;;4952119;28;20031;-77
2021/12/26 12:20:39;;;;;;;42.97;20.85;;;;;;;;;;4952412;28;20746;-77
2021/12/26 12:23:08;;;;;;;42.67;21.48;;;;;;;;;;4952229;29;20098;-77
2021/12/26 12:25:34;;;;;;;35.28;19.70;;;;;;;;;;4952319;28;20126;-77
2021/12/26 12:28:19;;;;;;;40.08;20.77;;;;;;;;;;4952249;29;20042;-77
2021/12/26 12:30:47;;;;;;;44.40;20.75;;;;;;;;;;4952109;28;20536;-77
2021/12/26 12:33:27;;;;;;;35.97;20.30;;;;;;;;;;4932593;29;20490;-77
2021/12/26 12:35:56;;;;;;;41.53;18.85;;;;;;;;;;4933004;29;20023;-78
2021/12/26 12:38:28;;;;;;;38.85;21.05;;;;;;;;;;4939822;29;20027;-77
2021/12/26 12:40:54;;;;;;;40.53;21.10;;;;;;;;;;4992039;28;20037;-77
2021/12/26 12:43:22;;;;;;;43.40;22.02;;;;;;;;;;5031433;28;20260;-76
2021/12/26 12:45:59;;;;;;;42.72;19.98;;;;;;;;;;5030012;28;20259;-78
2021/12/26 12:48:27;;;;;;;36.60;20.75;;;;;;;;;;5030389;28;20216;-76
2021/12/26 12:50:54;;;;;;;38.65;20.70;;;;;;;;;;5030149;28;20096;-76
2021/12/26 12:53:39;;;;;;;36.47;19.48;;;;;;;;;;5029078;28;20494;-76
2021/12/26 12:56:06;;;;;;;39.10;21.02;;;;;;;;;;5030583;28;20511;-77
2021/12/26 12:58:32;;;;;;;38.55;19.80;;;;;;;;;;5031181;28;20502;-76
2021/12/26 13:00:59;;;;;;;42.28;21.25;;;;;;;;;;5031304;28;20028;-76
2021/12/26 13:03:25;;;;;;;43.22;19.63;;;;;;;;;;5030971;28;20036;-76
2021/12/26 13:05:52;;;;;;;37.28;20.00;;;;;;;;;;5028714;28;20025;-76
2021/12/26 13:08:21;;;;;;;34.95;19.77;;;;;;;;;;5030608;28;20037;-76
2021/12/26 13:10:54;;;;;;;37.13;19.67;;;;;;;;;;5030684;28;20349;-76
2021/12/26 13:13:21;;;;;;;39.45;19.65;;;;;;;;;;5030781;28;20026;-76
2021/12/26 13:16:05;;;;;;;35.78;19.67;;;;;;;;;;5030943;28;20032;-77
2021/12/26 13:18:35;;;;;;;33.33;18.13;;;;;;;;;;5027771;28;20120;-76
2021/12/26 13:21:06;;;;;;;30.90;17.30;;;;;;;;;;5029971;28;20049;-76
2021/12/26 13:23:33;;;;;;;39.58;22.60;;;;;;;;;;5030574;28;20029;-76
2021/12/26 13:26:06;;;;;;;36.00;19.33;;;;;;;;;;5030415;28;20079;-76
2021/12/26 13:28:33;;;;;;;40.35;20.42;;;;;;;;;;5030462;28;20033;-76
2021/12/26 13:31:10;;;;;;;45.80;23.55;;;;;;;;;;5028714;28;20388;-76
2021/12/26 13:33:38;;;;;;;40.78;22.33;;;;;;;;;;5022990;28;20056;-76
2021/12/26 13:36:09;;;;;;;40.95;20.25;;;;;;;;;;5029954;28;20083;-77
2021/12/26 13:38:35;;;;;;;36.90;20.20;;;;;;;;;;5030433;28;20464;-76
2021/12/26 13:41:02;;;;;;;35.08;19.60;;;;;;;;;;5030143;28;20100;-77
2021/12/26 13:43:32;;;;;;;37.65;20.52;;;;;;;;;;5029204;28;20061;-77
2021/12/26 13:45:59;;;;;;;35.83;20.58;;;;;;;;;;5021965;28;20041;-76
2021/12/26 13:48:26;;;;;;;39.63;19.83;;;;;;;;;;5027892;28;20118;-77
2021/12/26 13:50:52;;;;;;;35.45;18.30;;;;;;;;;;5029441;28;20034;-76
2021/12/26 13:53:18;;;;;;;38.78;19.83;;;;;;;;;;5029425;28;20048;-77
2021/12/26 13:55:47;;;;;;;40.75;20.38;;;;;;;;;;5029894;28;20444;-77
2021/12/26 13:58:14;;;;;;;37.20;18.52;;;;;;;;;;5033173;28;20036;-76
2021/12/26 14:00:46;;;;;;;45.75;22.50;;;;;;;;;;5033434;28;20026;-76
2021/12/26 14:03:12;;;;;;;38.57;20.37;;;;;;;;;;5034380;28;20514;-77
2021/12/26 14:05:38;;;;;;;37.53;20.05;;;;;;;;;;5032345;28;20117;-78
2021/12/26 14:08:12;;;;;;;40.10;22.05;;;;;;;;;;5033820;28;20040;-76
2021/12/26 14:10:38;;;;;;;38.63;21.48;;;;;;;;;;5033829;28;20106;-78
2021/12/26 14:13:07;;;;;;;36.95;21.27;;;;;;;;;;5035181;28;20030;-77
2021/12/26 14:15:35;;;;;;;36.92;22.25;;;;;;;;;;5032739;28;20121;-77
2021/12/26 14:18:04;;;;;;;39.83;23.77;;;;;;;;;;5032684;28;20033;-77
2021/12/26 14:20:50;;;;;;;45.83;24.02;;;;;;;;;;5033207;28;20021;-77
2021/12/26 14:23:39;;;;;;;42.35;23.40;;;;;;;;;;5016348;28;20392;-77
2021/12/26 14:26:07;;;;;;;39.33;23.08;;;;;;;;;;5030471;28;20353;-77
2021/12/26 14:28:38;;;;;;;37.72;22.25;;;;;;;;;;5033921;28;20033;-77
2021/12/26 14:31:04;;;;;;;33.50;18.13;;;;;;;;;;5032943;28;20546;-77